Time;durP1;ratioP1;P1;durP2;ratioP2;P2;SDS_P1;SDS_P2;PMS_P1;PMS_P2;Temp;Humidity;BMP_temperature;BMP_pressure;BME280_temperature;BME280_humidity;BME280_pressure;Samples;Min_cycle;Max_cycle;Signal;HPM_P1;HPM_P2
2022/09/14 00:00:08;;;;;;;29.37;22.93;;;;;;;17.78;100.00;99953.13;680457;28;1266;-63
2022/09/14 00:00:30;;;;;;;28.40;22.90;;;;;;;17.78;100.00;99955.75;681177;28;1168;-63
2022/09/14 00:00:51;;;;;;;29.53;22.73;;;;;;;17.78;100.00;99957.56;681534;28;4376;-62
2022/09/14 00:01:22;;;;;;;29.38;22.85;;;;;;;17.74;100.00;99959.47;678752;28;1363;-63
2022/09/14 00:01:43;;;;;;;31.08;23.38;;;;;;;17.71;100.00;99956.97;681806;28;1119;-62
2022/09/14 00:02:03;;;;;;;31.33;23.47;;;;;;;17.69;100.00;99950.88;682095;28;1108;-63
2022/09/14 00:02:24;;;;;;;28.27;23.25;;;;;;;17.68;100.00;99955.31;681906;28;1187;-63
2022/09/14 00:02:45;;;;;;;28.60;23.70;;;;;;;17.66;100.00;99951.88;681966;28;1197;-63
2022/09/14 00:03:05;;;;;;;30.50;24.20;;;;;;;17.65;100.00;99955.47;680689;28;1214;-64
2022/09/14 00:03:26;;;;;;;31.33;24.08;;;;;;;17.67;100.00;99950.97;682248;28;1227;-63
2022/09/14 00:03:47;;;;;;;30.47;24.17;;;;;;;17.68;100.00;99951.81;681435;28;4419;-63
2022/09/14 00:04:14;;;;;;;30.13;23.73;;;;;;;17.67;100.00;99950.09;681090;28;1433;-64
2022/09/14 00:04:35;;;;;;;30.15;23.00;;;;;;;17.65;100.00;99947.53;681366;28;1264;-62
2022/09/14 00:04:56;;;;;;;29.42;22.85;;;;;;;17.65;100.00;99949.31;681302;28;1385;-63
2022/09/14 00:05:16;;;;;;;30.00;23.17;;;;;;;17.64;100.00;99945.81;680996;28;1334;-62
2022/09/14 00:05:36;;;;;;;29.83;23.60;;;;;;;17.63;100.00;99946.72;681818;28;1402;-63
2022/09/14 00:06:06;;;;;;;30.30;24.10;;;;;;;17.66;100.00;99948.38;682335;28;1425;-63
2022/09/14 00:06:27;;;;;;;29.67;23.55;;;;;;;17.67;100.00;99948.31;682356;28;1092;-62
2022/09/14 00:06:48;;;;;;;31.48;23.75;;;;;;;17.69;100.00;99948.25;683327;28;4389;-62
2022/09/14 00:07:09;;;;;;;31.90;24.05;;;;;;;17.68;100.00;99943.88;681425;28;1036;-63
2022/09/14 00:07:29;;;;;;;32.42;23.88;;;;;;;17.69;100.00;99942.94;682093;28;1298;-64
2022/09/14 00:07:49;;;;;;;33.43;24.13;;;;;;;17.68;100.00;99946.50;682353;28;1269;-63
2022/09/14 00:08:10;;;;;;;31.77;24.00;;;;;;;17.65;100.00;99942.25;680217;28;1510;-62
2022/09/14 00:08:31;;;;;;;32.03;23.98;;;;;;;17.66;100.00;99948.38;682015;28;1199;-62
2022/09/14 00:08:54;;;;;;;32.97;24.50;;;;;;;17.67;100.00;99945.66;681711;28;1156;-62
2022/09/14 00:09:23;;;;;;;32.15;24.05;;;;;;;17.68;100.00;99941.22;680915;28;1441;-64
2022/09/14 00:09:44;;;;;;;30.73;24.27;;;;;;;17.68;100.00;99939.47;680878;28;4390;-62
2022/09/14 00:10:05;;;;;;;32.90;25.08;;;;;;;17.68;100.00;99938.59;680739;28;1365;-63
2022/09/14 00:10:26;;;;;;;32.35;24.38;;;;;;;17.66;100.00;99932.53;682406;28;1093;-64
2022/09/14 00:10:46;;;;;;;30.60;24.17;;;;;;;17.64;100.00;99937.88;683174;28;1175;-62
2022/09/14 00:11:10;;;;;;;29.87;24.23;;;;;;;17.64;100.00;99939.66;681703;28;1139;-64
2022/09/14 00:11:33;;;;;;;32.78;25.15;;;;;;;17.64;100.00;99937.88;682038;28;1220;-63
2022/09/14 00:11:55;;;;;;;33.33;25.33;;;;;;;17.62;100.00;99931.78;681890;28;1215;-62
2022/09/14 00:12:15;;;;;;;32.15;24.58;;;;;;;17.61;100.00;99945.09;680119;28;1370;-63
2022/09/14 00:12:36;;;;;;;31.47;24.07;;;;;;;17.61;100.00;99942.44;674398;29;4764;-63
2022/09/14 00:12:57;;;;;;;32.10;24.63;;;;;;;17.60;100.00;99938.94;672062;29;1217;-63
2022/09/14 00:13:17;;;;;;;32.05;24.13;;;;;;;17.61;100.00;99940.69;670853;29;1432;-62
2022/09/14 00:13:39;;;;;;;32.23;24.57;;;;;;;17.62;100.00;99934.44;671353;29;1337;-63
2022/09/14 00:14:01;;;;;;;34.83;25.27;;;;;;;17.60;100.00;99938.06;671864;29;1226;-63
2022/09/14 00:14:22;;;;;;;33.67;25.10;;;;;;;17.58;100.00;99935.50;675925;29;1144;-63
2022/09/14 00:14:42;;;;;;;35.90;24.70;;;;;;;17.56;100.00;99941.81;676551;29;1256;-62
2022/09/14 00:15:06;;;;;;;33.63;24.92;;;;;;;17.56;100.00;99933.88;678390;28;1058;-62
2022/09/14 00:15:26;;;;;;;34.50;26.00;;;;;;;17.58;100.00;99935.50;679159;28;1295;-63
2022/09/14 00:15:47;;;;;;;34.50;24.67;;;;;;;17.60;100.00;99927.50;678328;28;4578;-62
2022/09/14 00:16:13;;;;;;;33.40;23.90;;;;;;;17.61;100.00;99935.41;679539;28;1064;-63
2022/09/14 00:16:36;;;;;;;32.70;24.00;;;;;;;17.60;100.00;99928.38;680714;28;1285;-63
2022/09/14 00:16:56;;;;;;;33.17;24.27;;;;;;;17.62;100.00;99931.78;682946;28;1286;-63
2022/09/14 00:17:17;;;;;;;32.67;24.07;;;;;;;17.64;100.00;99929.97;682384;28;1402;-63
2022/09/14 00:17:38;;;;;;;31.65;23.98;;;;;;;17.64;100.00;99929.09;681050;28;1432;-64
2022/09/14 00:17:58;;;;;;;31.10;24.53;;;;;;;17.64;100.00;99927.31;682009;28;1449;-62
2022/09/14 00:18:18;;;;;;;32.45;24.80;;;;;;;17.66;100.00;99928.09;681068;28;1426;-63
2022/09/14 00:18:39;;;;;;;33.07;25.03;;;;;;;17.67;100.00;99927.16;681609;28;4419;-63
2022/09/14 00:19:05;;;;;;;33.17;24.37;;;;;;;17.67;100.00;99932.44;682888;28;1241;-63
2022/09/14 00:19:26;;;;;;;29.40;23.67;;;;;;;17.68;100.00;99935.94;681829;28;1143;-62
2022/09/14 00:19:46;;;;;;;31.77;23.92;;;;;;;17.66;100.00;99927.25;681421;28;1977;-62
2022/09/14 00:20:07;;;;;;;32.70;24.73;;;;;;;17.65;100.00;99929.03;681118;28;1096;-62
2022/09/14 00:20:29;;;;;;;30.98;25.13;;;;;;;17.63;100.00;99925.59;683737;28;1278;-63
2022/09/14 00:20:49;;;;;;;31.75;24.83;;;;;;;17.65;100.00;99928.16;681710;28;1211;-63
2022/09/14 00:21:11;;;;;;;31.40;24.13;;;;;;;17.64;100.00;99929.97;681701;28;1222;-63
2022/09/14 00:21:34;;;;;;;33.00;24.92;;;;;;;17.64;100.00;99929.97;682878;28;1255;-63
2022/09/14 00:21:56;;;;;;;31.67;24.38;;;;;;;17.63;100.00;99927.38;678650;28;4358;-62
2022/09/14 00:22:17;;;;;;;33.60;24.60;;;;;;;17.61;100.00;99922.19;680711;28;1172;-62
2022/09/14 00:22:37;;;;;;;35.22;24.73;;;;;;;17.61;100.00;99930.09;681137;28;1326;-64
2022/09/14 00:22:58;;;;;;;32.80;24.80;;;;;;;17.60;100.00;99925.75;682238;28;1685;-63
2022/09/14 00:23:19;;;;;;;33.50;24.27;;;;;;;17.61;100.00;99927.47;681292;28;1548;-62
2022/09/14 00:23:41;;;;;;;34.50;24.70;;;;;;;17.60;100.00;99922.22;680620;28;1337;-62
2022/09/14 00:24:02;;;;;;;34.17;24.73;;;;;;;17.58;100.00;99919.66;681675;28;1156;-62
2022/09/14 00:24:24;;;;;;;33.95;25.00;;;;;;;17.58;100.00;99913.53;682185;28;1217;-62
2022/09/14 00:24:44;;;;;;;33.53;25.40;;;;;;;17.60;100.00;99916.94;681958;28;4466;-62
2022/09/14 00:25:05;;;;;;;33.42;25.38;;;;;;;17.60;100.00;99915.16;679484;28;1164;-63
2022/09/14 00:25:26;;;;;;;33.23;25.07;;;;;;;17.60;100.00;99915.16;680267;28;1200;-62
2022/09/14 00:25:47;;;;;;;33.92;24.52;;;;;;;17.60;100.00;99915.16;682124;28;1112;-62
2022/09/14 00:26:11;;;;;;;32.07;24.57;;;;;;;17.61;100.00;99911.59;682006;28;1305;-63
2022/09/14 00:26:32;;;;;;;32.33;24.85;;;;;;;17.59;100.00;99918.72;678899;29;1253;-63
2022/09/14 00:26:52;;;;;;;32.47;24.70;;;;;;;17.60;100.00;99912.53;678863;28;1223;-62
2022/09/14 00:27:13;;;;;;;33.10;25.08;;;;;;;17.61;100.00;99908.09;680279;28;1458;-63
2022/09/14 00:27:33;;;;;;;33.90;24.80;;;;;;;17.60;100.00;99909.88;680836;28;1204;-63
2022/09/14 00:27:56;;;;;;;33.38;24.70;;;;;;;17.60;100.00;99911.66;678809;28;5037;-63
2022/09/14 00:28:16;;;;;;;32.10;24.83;;;;;;;17.60;100.00;99901.97;680521;28;1319;-62
2022/09/14 00:28:42;;;;;;;30.63;24.38;;;;;;;17.60;100.00;99903.72;683433;28;1295;-62
2022/09/14 00:29:04;;;;;;;31.05;24.33;;;;;;;17.60;100.00;99903.72;682501;28;1200;-63
2022/09/14 00:29:25;;;;;;;32.03;23.95;;;;;;;17.57;100.00;99907.38;681750;28;1243;-62
2022/09/14 00:29:47;;;;;;;31.27;24.23;;;;;;;17.57;100.00;99902.09;682521;28;1155;-63
2022/09/14 00:30:08;;;;;;;30.02;23.55;;;;;;;17.61;100.00;99903.69;681650;28;1297;-63
2022/09/14 00:30:28;;;;;;;29.30;23.85;;;;;;;17.62;100.00;99897.44;681344;28;1243;-62
2022/09/14 00:30:49;;;;;;;31.53;24.90;;;;;;;17.63;100.00;99904.44;681142;28;5048;-62
2022/09/14 00:31:10;;;;;;;29.93;23.97;;;;;;;17.63;100.00;99900.97;682324;28;1192;-65
2022/09/14 00:31:36;;;;;;;31.92;23.98;;;;;;;17.63;100.00;99899.16;682197;28;1230;-63
2022/09/14 00:31:57;;;;;;;32.63;25.05;;;;;;;17.64;100.00;99897.38;682497;28;1127;-62
2022/09/14 00:32:17;;;;;;;32.70;24.65;;;;;;;17.64;100.00;99892.97;681882;28;1385;-63
2022/09/14 00:32:38;;;;;;;31.87;24.77;;;;;;;17.65;100.00;99901.72;681696;28;1271;-63
2022/09/14 00:32:58;;;;;;;30.00;23.50;;;;;;;17.66;100.00;99891.09;682091;28;1446;-63
2022/09/14 00:33:18;;;;;;;31.37;24.43;;;;;;;17.65;100.00;99894.69;681721;28;1457;-63
2022/09/14 00:33:41;;;;;;;30.53;24.50;;;;;;;17.63;100.00;99896.53;681039;28;4387;-62
2022/09/14 00:34:03;;;;;;;31.02;24.88;;;;;;;17.62;100.00;99900.09;681737;28;1187;-64
2022/09/14 00:34:25;;;;;;;31.73;24.17;;;;;;;17.61;100.00;99890.47;681656;28;1089;-62
2022/09/14 00:34:46;;;;;;;32.08;24.50;;;;;;;17.61;100.00;99893.09;682171;28;1195;-63
2022/09/14 00:35:06;;;;;;;31.42;24.30;;;;;;;17.62;100.00;99891.31;683043;28;1077;-62
2022/09/14 00:35:27;;;;;;;34.13;24.70;;;;;;;17.62;100.00;99888.66;681153;28;1077;-62
2022/09/14 00:35:47;;;;;;;35.15;25.83;;;;;;;17.62;100.00;99889.50;679767;28;1097;-64
2022/09/14 00:36:13;;;;;;;34.27;26.23;;;;;;;17.63;100.00;99891.22;679911;28;1266;-63
2022/09/14 00:36:38;;;;;;;33.88;25.77;;;;;;;17.64;100.00;99890.31;681908;28;1181;-63
2022/09/14 00:36:58;;;;;;;34.42;25.83;;;;;;;17.64;100.00;99892.97;681645;28;5021;-63
2022/09/14 00:37:18;;;;;;;35.77;26.60;;;;;;;17.64;100.00;99886.78;680795;28;1131;-62
2022/09/14 00:37:39;;;;;;;33.47;26.43;;;;;;;17.65;100.00;99886.75;681760;28;1503;-62
2022/09/14 00:37:59;;;;;;;32.90;25.93;;;;;;;17.64;100.00;99885.03;682146;28;1267;-62
2022/09/14 00:38:19;;;;;;;34.83;26.20;;;;;;;17.63;100.00;99878.03;683101;28;947;-64
2022/09/14 00:38:40;;;;;;;35.47;26.13;;;;;;;17.65;100.00;99881.47;682277;28;1011;-63
2022/09/14 00:39:01;;;;;;;33.95;26.00;;;;;;;17.66;100.00;99885.78;682328;28;1334;-62
2022/09/14 00:39:23;;;;;;;33.77;25.70;;;;;;;17.67;100.00;99876.94;680643;28;1126;-61
2022/09/14 00:39:43;;;;;;;33.20;25.85;;;;;;;17.68;100.00;99873.38;679080;28;4317;-62
2022/09/14 00:40:05;;;;;;;34.72;26.00;;;;;;;17.70;100.00;99879.44;679351;28;1910;-63
2022/09/14 00:40:25;;;;;;;33.60;26.58;;;;;;;17.70;100.00;99871.50;677245;29;1152;-64
2022/09/14 00:40:55;;;;;;;32.78;25.40;;;;;;;17.76;100.00;99864.22;676591;29;1116;-63
2022/09/14 00:41:20;;;;;;;31.60;24.42;;;;;;;17.78;100.00;99872.97;679347;28;1375;-63
2022/09/14 00:41:43;;;;;;;33.83;25.92;;;;;;;17.78;100.00;99872.97;682447;28;1096;-63
2022/09/14 00:42:05;;;;;;;30.98;24.77;;;;;;;17.79;100.00;99870.25;679598;28;1093;-63
2022/09/14 00:42:25;;;;;;;33.58;25.52;;;;;;;17.78;100.00;99870.31;679422;28;1183;-62
2022/09/14 00:42:46;;;;;;;32.93;26.00;;;;;;;17.77;100.00;99871.25;678070;28;4420;-63
2022/09/14 00:43:13;;;;;;;34.33;26.40;;;;;;;17.76;100.00;99867.72;676936;29;1274;-62
2022/09/14 00:43:50;;;;;;;33.60;26.00;;;;;;;17.84;100.00;99872.66;677534;29;1252;-63
2022/09/14 00:44:10;;;;;;;31.02;25.02;;;;;;;17.84;100.00;99870.00;681315;28;1337;-63
2022/09/14 00:44:30;;;;;;;32.47;25.52;;;;;;;17.84;100.00;99868.22;681699;28;948;-64
2022/09/14 00:44:51;;;;;;;32.50;26.13;;;;;;;17.85;100.00;99869.94;681772;28;1077;-62
2022/09/14 00:45:15;;;;;;;32.95;25.63;;;;;;;17.84;100.00;99868.22;682058;28;1223;-62
2022/09/14 00:45:35;;;;;;;34.17;26.10;;;;;;;17.81;100.00;99870.16;681106;28;4268;-65
2022/09/14 00:45:58;;;;;;;30.77;24.57;;;;;;;17.83;100.00;99868.28;681220;28;1490;-64
2022/09/14 00:46:18;;;;;;;31.02;25.02;;;;;;;17.86;100.00;99868.13;680588;28;1264;-63
2022/09/14 00:46:41;;;;;;;31.43;25.60;;;;;;;17.83;100.00;99865.66;682729;28;1397;-63
2022/09/14 00:47:02;;;;;;;32.20;24.60;;;;;;;17.83;100.00;99861.25;682122;28;1096;-62
2022/09/14 00:47:23;;;;;;;29.15;24.48;;;;;;;17.86;100.00;99860.22;680812;28;962;-62
2022/09/14 00:47:46;;;;;;;32.08;25.90;;;;;;;17.84;100.00;99860.28;681655;28;1196;-62
2022/09/14 00:48:07;;;;;;;29.85;23.85;;;;;;;17.88;100.00;99861.00;681297;28;1084;-63
2022/09/14 00:48:28;;;;;;;29.38;23.75;;;;;;;17.85;100.00;99861.16;683176;28;1152;-63
2022/09/14 00:48:49;;;;;;;30.50;23.92;;;;;;;17.85;100.00;99861.16;681117;28;4577;-62
2022/09/14 00:49:13;;;;;;;29.98;23.33;;;;;;;17.84;100.00;99857.63;682494;28;1105;-62
2022/09/14 00:49:40;;;;;;;28.15;23.15;;;;;;;17.77;100.00;99855.38;681655;28;1035;-64
2022/09/14 00:50:02;;;;;;;29.20;22.98;;;;;;;17.75;100.00;99862.50;681964;28;1278;-63
2022/09/14 00:50:23;;;;;;;26.95;22.58;;;;;;;17.74;100.00;99860.81;681974;28;1369;-63
2022/09/14 00:50:44;;;;;;;28.43;22.80;;;;;;;17.73;100.00;99859.09;682036;28;1219;-64
2022/09/14 00:51:05;;;;;;;28.23;22.35;;;;;;;17.68;100.00;99857.53;681087;28;1254;-63
2022/09/14 00:51:27;;;;;;;26.92;23.00;;;;;;;17.65;100.00;99857.69;680956;28;1312;-63
2022/09/14 00:52:00;;;;;;;29.38;24.15;;;;;;;17.56;100.00;99860.75;681445;28;4447;-63
2022/09/14 00:52:27;;;;;;;29.13;23.13;;;;;;;17.53;100.00;99860.91;682241;28;1160;-62
2022/09/14 00:52:49;;;;;;;27.55;23.02;;;;;;;17.55;100.00;99859.03;680443;28;1307;-62
2022/09/14 00:53:09;;;;;;;28.05;23.30;;;;;;;17.56;100.00;99862.53;681381;28;1226;-63
2022/09/14 00:53:30;;;;;;;30.75;23.55;;;;;;;17.52;100.00;99856.53;681634;28;1417;-63
2022/09/14 00:53:51;;;;;;;31.07;23.60;;;;;;;17.52;100.00;99851.25;680154;28;1124;-63
2022/09/14 00:54:11;;;;;;;29.83;23.73;;;;;;;17.56;100.00;99857.25;679674;28;1331;-62
2022/09/14 00:54:32;;;;;;;27.10;23.20;;;;;;;17.59;100.00;99854.47;680221;28;1248;-62
2022/09/14 00:54:55;;;;;;;28.15;23.10;;;;;;;17.61;100.00;99853.47;678298;28;4302;-62
2022/09/14 00:55:21;;;;;;;25.88;22.23;;;;;;;17.63;100.00;99853.38;679764;28;1161;-62
2022/09/14 00:55:41;;;;;;;28.27;23.17;;;;;;;17.64;100.00;99855.09;681635;28;1228;-62
2022/09/14 00:56:01;;;;;;;28.98;23.42;;;;;;;17.63;100.00;99853.38;682104;28;1111;-63
2022/09/14 00:56:22;;;;;;;26.47;22.13;;;;;;;17.65;100.00;99852.38;682264;28;1282;-63
2022/09/14 00:56:45;;;;;;;24.60;21.67;;;;;;;17.64;100.00;99850.66;682763;28;1274;-62
2022/09/14 00:57:06;;;;;;;26.42;21.83;;;;;;;17.60;100.00;99854.38;681904;28;1157;-63
2022/09/14 00:57:29;;;;;;;24.23;20.40;;;;;;;17.57;100.00;99857.19;681942;28;1969;-62
2022/09/14 00:57:52;;;;;;;25.52;21.02;;;;;;;17.57;100.00;99843.97;681772;28;4304;-63
2022/09/14 00:58:12;;;;;;;27.52;21.83;;;;;;;17.56;100.00;99855.47;682185;28;1436;-62
2022/09/14 00:58:33;;;;;;;25.43;20.80;;;;;;;17.56;100.00;99850.16;682542;28;1396;-62
2022/09/14 00:58:57;;;;;;;23.67;19.40;;;;;;;17.58;100.00;99848.31;682163;28;1322;-63
2022/09/14 00:59:27;;;;;;;24.20;20.20;;;;;;;17.53;100.00;99850.31;682340;28;1433;-62
2022/09/14 00:59:50;;;;;;;22.88;19.48;;;;;;;17.54;100.00;99852.00;681656;28;1045;-63
2022/09/14 01:00:13;;;;;;;22.38;19.55;;;;;;;17.51;100.00;99850.41;681157;28;1380;-62
2022/09/14 01:00:34;;;;;;;20.42;18.23;;;;;;;17.56;100.00;99846.69;682128;28;1275;-63
2022/09/14 01:00:54;;;;;;;20.40;17.42;;;;;;;17.61;100.00;99844.66;682499;28;4263;-62
2022/09/14 01:01:14;;;;;;;20.77;17.30;;;;;;;17.57;100.00;99856.31;681841;28;1213;-62
2022/09/14 01:01:35;;;;;;;20.33;17.27;;;;;;;17.56;100.00;99851.97;681636;28;1262;-62
2022/09/14 01:01:55;;;;;;;20.23;17.73;;;;;;;17.52;100.00;99852.09;682224;28;1041;-63
2022/09/14 01:02:17;;;;;;;21.27;17.00;;;;;;;17.50;100.00;99850.44;679372;28;1275;-62
2022/09/14 01:02:38;;;;;;;19.02;15.95;;;;;;;17.50;100.00;99845.16;679050;28;1386;-63
2022/09/14 01:02:59;;;;;;;20.02;16.08;;;;;;;17.51;100.00;99849.53;682004;28;1409;-63
2022/09/14 01:03:20;;;;;;;17.73;15.82;;;;;;;17.54;100.00;99844.09;678884;28;1385;-63
2022/09/14 01:03:40;;;;;;;18.60;15.20;;;;;;;17.60;100.00;99843.81;678521;28;4375;-62
2022/09/14 01:04:00;;;;;;;19.17;15.50;;;;;;;17.55;100.00;99847.59;679891;28;1128;-61
2022/09/14 01:04:22;;;;;;;18.40;14.75;;;;;;;17.57;100.00;99853.66;682755;28;1112;-62
2022/09/14 01:04:43;;;;;;;18.17;14.35;;;;;;;17.60;100.00;99846.47;682610;28;1164;-61
2022/09/14 01:05:04;;;;;;;17.73;14.53;;;;;;;17.54;100.00;99852.00;681418;28;1450;-62
2022/09/14 01:05:50;;;;;;;16.40;14.27;;;;;;;17.54;100.00;99846.72;682489;28;1201;-63
2022/09/14 01:06:35;;;;;;;16.80;13.57;;;;;;;17.68;100.00;99851.38;678145;28;1128;-61
2022/09/14 01:07:17;;;;;;;17.08;14.70;;;;;;;17.65;100.00;99854.16;681878;28;4867;-63
2022/09/14 01:08:19;;;;;;;14.93;13.10;;;;;;;17.77;100.00;99852.72;681228;28;1278;-63
2022/09/14 01:08:47;;;;;;;14.80;11.30;;;;;;;17.86;100.00;99857.56;670141;29;1234;-62
2022/09/14 01:09:20;;;;;;;14.50;11.80;;;;;;;17.85;100.00;99850.59;669022;29;1360;-64
2022/09/14 01:09:50;;;;;;;11.80;10.32;;;;;;;17.94;100.00;99852.78;668342;29;4396;-62
2022/09/14 01:10:23;;;;;;;12.57;10.57;;;;;;;17.97;100.00;99855.31;670285;29;1206;-62
2022/09/14 01:10:57;;;;;;;12.77;10.85;;;;;;;18.04;100.00;99854.09;670211;29;1135;-63
2022/09/14 01:11:27;;;;;;;13.73;10.85;;;;;;;17.99;100.00;99848.16;671287;29;1453;-62
2022/09/14 01:12:11;;;;;;;11.90;10.07;;;;;;;18.04;100.00;99854.09;669769;29;1325;-62
2022/09/14 01:12:48;;;;;;;11.90;10.00;;;;;;;18.06;100.00;99855.81;668699;29;3235;-63
2022/09/14 01:13:31;;;;;;;11.23;9.25;;;;;;;18.02;100.00;99850.63;667775;29;4903;-61
2022/09/14 01:14:00;;;;;;;9.30;7.70;;;;;;;18.02;100.00;99853.28;659387;29;1345;-61
2022/09/14 01:14:41;;;;;;;9.52;7.82;;;;;;;17.92;100.00;99852.03;659770;29;1205;-62
2022/09/14 01:15:19;;;;;;;9.18;7.32;;;;;;;17.81;100.00;99854.31;679654;28;1185;-63
2022/09/14 01:15:58;;;;;;;10.43;7.93;;;;;;;17.76;100.00;99854.50;682042;28;4436;-62
2022/09/14 01:16:37;;;;;;;9.18;7.82;;;;;;;17.80;100.00;99853.44;681915;28;1414;-61
2022/09/14 01:17:16;;;;;;;10.48;8.00;;;;;;;17.96;100.00;99850.94;682452;28;1381;-62
2022/09/14 01:17:48;;;;;;;11.00;8.25;;;;;;;17.99;100.00;99856.09;681830;28;1401;-62
2022/09/14 01:18:34;;;;;;;10.35;8.40;;;;;;;17.83;100.00;99855.94;680632;28;1275;-62
2022/09/14 01:19:03;;;;;;;9.25;8.13;;;;;;;17.75;100.00;99851.94;683188;28;4275;-62
2022/09/14 01:20:02;;;;;;;9.60;8.18;;;;;;;17.95;100.00;99853.69;681490;28;1305;-63
2022/09/14 01:20:45;;;;;;;8.93;7.38;;;;;;;18.06;100.00;99855.81;681992;28;1133;-62
2022/09/14 01:21:10;;;;;;;9.63;7.45;;;;;;;17.96;100.00;99858.03;681817;28;1199;-62
2022/09/14 01:21:37;;;;;;;8.77;7.68;;;;;;;17.92;100.00;99859.13;681876;28;1158;-62
2022/09/14 01:22:08;;;;;;;8.75;7.10;;;;;;;17.86;100.00;99861.09;679922;28;6082;-62
2022/09/14 01:22:38;;;;;;;9.35;7.57;;;;;;;17.78;100.00;99857.94;682622;28;1203;-62
2022/09/14 01:23:13;;;;;;;8.55;6.80;;;;;;;17.78;100.00;99855.31;682960;28;1239;-62
2022/09/14 01:23:56;;;;;;;8.45;6.55;;;;;;;17.76;100.00;99858.94;682684;28;1104;-62
2022/09/14 01:24:45;;;;;;;9.35;7.20;;;;;;;17.64;100.00;99855.09;681652;28;1282;-62
2022/09/14 01:25:19;;;;;;;8.68;6.85;;;;;;;17.54;100.00;99862.59;681912;28;5014;-63
2022/09/14 01:25:51;;;;;;;8.35;7.07;;;;;;;17.50;100.00;99858.38;682303;28;1573;-62
2022/09/14 01:26:24;;;;;;;8.38;7.03;;;;;;;17.53;100.00;99864.38;682104;28;1235;-61
2022/09/14 01:27:12;;;;;;;9.23;7.18;;;;;;;17.42;100.00;99860.50;683071;28;1344;-62
2022/09/14 01:27:42;;;;;;;7.55;6.85;;;;;;;17.39;100.00;99860.66;681660;28;1163;-62
2022/09/14 01:28:15;;;;;;;8.15;7.15;;;;;;;17.38;100.00;99864.22;681245;28;4882;-62
2022/09/14 01:28:49;;;;;;;9.73;6.85;;;;;;;17.34;100.00;99858.22;681297;28;1410;-61
2022/09/14 01:29:15;;;;;;;8.98;7.10;;;;;;;17.29;100.00;99860.22;681262;28;1160;-62
2022/09/14 01:29:45;;;;;;;8.65;7.05;;;;;;;17.22;100.00;99858.78;682102;28;1398;-61
2022/09/14 01:30:09;;;;;;;9.90;7.10;;;;;;;17.19;100.00;99859.78;682359;28;1091;-61
2022/09/14 01:30:33;;;;;;;9.13;7.15;;;;;;;17.14;100.00;99865.28;681022;28;1213;-62
2022/09/14 01:30:59;;;;;;;9.15;7.10;;;;;;;17.13;100.00;99863.56;681376;28;4385;-64
2022/09/14 01:31:35;;;;;;;9.48;7.20;;;;;;;17.11;100.00;99864.53;681919;28;1519;-61
2022/09/14 01:32:12;;;;;;;9.07;7.10;;;;;;;17.06;100.00;99869.16;682801;28;1283;-62
2022/09/14 01:32:43;;;;;;;9.65;7.50;;;;;;;17.04;100.00;99873.66;681974;28;1247;-62
2022/09/14 01:33:32;;;;;;;9.35;6.97;;;;;;;17.04;100.00;99871.03;682435;28;1194;-62
2022/09/14 01:34:23;;;;;;;10.60;7.47;;;;;;;16.90;100.00;99864.56;681885;28;4398;-62
2022/09/14 01:35:25;;;;;;;9.60;7.30;;;;;;;16.89;100.00;99867.28;678242;28;1216;-63
2022/09/14 01:35:52;;;;;;;8.98;7.40;;;;;;;16.87;100.00;99864.69;669787;29;1265;-62
2022/09/14 01:36:15;;;;;;;10.93;7.72;;;;;;;16.89;100.00;99873.44;670333;29;1115;-62
2022/09/14 01:36:38;;;;;;;11.77;8.07;;;;;;;16.88;100.00;99863.75;674425;28;4431;-62
2022/09/14 01:37:13;;;;;;;13.90;7.63;;;;;;;16.88;100.00;99862.88;682108;28;1262;-61
2022/09/14 01:37:42;;;;;;;9.85;7.90;;;;;;;16.86;100.00;99862.94;681950;28;1441;-62
2022/09/14 01:38:14;;;;;;;11.10;7.40;;;;;;;16.86;100.00;99860.31;682126;28;1144;-62
2022/09/14 01:38:46;;;;;;;10.70;7.90;;;;;;;16.85;100.00;99862.09;679537;28;1526;-61
2022/09/14 01:39:09;;;;;;;9.95;7.60;;;;;;;16.84;100.00;99867.44;675769;29;1380;-62
2022/09/14 01:39:32;;;;;;;11.35;7.70;;;;;;;16.81;100.00;99857.88;676613;29;1598;-63
2022/09/14 01:40:06;;;;;;;9.88;7.95;;;;;;;16.80;100.00;99861.44;676531;29;4557;-62
2022/09/14 01:40:34;;;;;;;11.45;7.95;;;;;;;16.81;100.00;99862.31;679649;28;1154;-62
2022/09/14 01:40:56;;;;;;;11.10;7.93;;;;;;;16.81;100.00;99864.97;679780;28;1243;-61
2022/09/14 01:41:21;;;;;;;10.30;7.70;;;;;;;16.81;100.00;99862.31;682783;28;1235;-61
2022/09/14 01:41:42;;;;;;;10.13;7.57;;;;;;;16.81;100.00;99860.53;683205;28;1057;-63
2022/09/14 01:42:03;;;;;;;10.05;7.75;;;;;;;16.83;100.00;99860.44;683676;28;1093;-62
2022/09/14 01:42:27;;;;;;;10.82;7.90;;;;;;;16.85;100.00;99866.53;681080;28;1526;-62
2022/09/14 01:42:53;;;;;;;11.63;8.25;;;;;;;16.88;100.00;99855.84;680387;28;4951;-62
2022/09/14 01:43:22;;;;;;;11.32;8.23;;;;;;;16.89;100.00;99862.00;680681;28;1109;-62
2022/09/14 01:43:52;;;;;;;10.88;8.73;;;;;;;16.89;100.00;99860.22;681481;28;1545;-63
2022/09/14 01:44:22;;;;;;;11.00;8.88;;;;;;;17.00;100.00;99859.75;682480;28;1167;-62
2022/09/14 01:44:48;;;;;;;10.60;7.78;;;;;;;17.21;100.00;99862.34;680145;28;1133;-62
2022/09/14 01:45:11;;;;;;;10.85;8.23;;;;;;;17.20;100.00;99858.88;679654;28;1062;-63
2022/09/14 01:45:33;;;;;;;9.02;6.90;;;;;;;17.26;100.00;99858.56;680878;28;1125;-63
2022/09/14 01:46:03;;;;;;;9.82;7.82;;;;;;;17.23;100.00;99864.00;680024;28;4352;-62
2022/09/14 01:46:33;;;;;;;11.23;8.05;;;;;;;17.23;100.00;99857.88;678081;28;1280;-63
2022/09/14 01:46:58;;;;;;;9.48;7.20;;;;;;;17.24;100.00;99856.91;681502;28;1139;-61
2022/09/14 01:47:29;;;;;;;9.27;6.93;;;;;;;17.25;100.00;99853.34;678240;28;1636;-61
2022/09/14 01:47:59;;;;;;;10.20;7.47;;;;;;;17.26;100.00;99857.72;678875;29;1165;-62
2022/09/14 01:48:29;;;;;;;12.00;6.95;;;;;;;17.29;100.00;99861.09;678400;28;1538;-62
2022/09/14 01:49:01;;;;;;;9.20;6.80;;;;;;;17.22;100.00;99854.34;678980;28;4341;-61
2022/09/14 01:49:31;;;;;;;8.57;6.78;;;;;;;17.28;100.00;99859.38;679899;28;1137;-63
2022/09/14 01:49:58;;;;;;;9.90;6.75;;;;;;;17.29;100.00;99858.47;678277;29;1309;-62
2022/09/14 01:50:43;;;;;;;9.23;6.40;;;;;;;17.29;100.00;99858.47;682546;28;1264;-61
2022/09/14 01:51:11;;;;;;;9.00;6.43;;;;;;;17.24;100.00;99857.78;672129;28;1362;-62
2022/09/14 01:52:01;;;;;;;8.93;6.60;;;;;;;16.98;100.00;99857.16;681509;28;1458;-62
2022/09/14 01:52:33;;;;;;;9.13;6.50;;;;;;;16.92;100.00;99859.22;680747;28;5182;-62
2022/09/14 01:53:15;;;;;;;9.75;6.90;;;;;;;16.83;100.00;99857.81;682695;28;1270;-62
2022/09/14 01:53:42;;;;;;;10.27;7.28;;;;;;;16.77;100.00;99863.38;681372;28;1522;-61
2022/09/14 01:54:11;;;;;;;10.13;7.20;;;;;;;16.69;100.00;99856.63;682455;28;1116;-62
2022/09/14 01:54:37;;;;;;;9.85;7.53;;;;;;;16.62;100.00;99857.81;679624;28;1294;-62
2022/09/14 01:55:09;;;;;;;9.90;7.30;;;;;;;16.56;100.00;99865.13;680049;28;5085;-62
2022/09/14 01:55:42;;;;;;;9.73;6.57;;;;;;;16.51;100.00;99858.25;678820;28;1043;-63
2022/09/14 01:56:14;;;;;;;10.85;7.00;;;;;;;16.47;100.00;99869.88;679210;29;1205;-62
2022/09/14 01:56:41;;;;;;;9.10;6.65;;;;;;;16.47;100.00;99869.03;682364;28;1172;-61
2022/09/14 01:57:23;;;;;;;9.40;7.07;;;;;;;16.46;100.00;99868.16;681984;28;1335;-61
2022/09/14 01:57:50;;;;;;;9.85;6.97;;;;;;;16.47;100.00;99866.38;681607;28;4490;-63
2022/09/14 01:58:19;;;;;;;8.10;6.68;;;;;;;16.48;100.00;99866.31;682943;28;1152;-62
2022/09/14 01:58:53;;;;;;;9.38;6.90;;;;;;;16.50;100.00;99866.25;682449;28;1441;-62
2022/09/14 01:59:17;;;;;;;9.20;7.18;;;;;;;16.50;100.00;99868.88;682797;28;1184;-61
2022/09/14 01:59:42;;;;;;;10.40;7.18;;;;;;;16.50;100.00;99866.25;679159;28;1691;-62
2022/09/14 02:00:09;;;;;;;9.50;7.13;;;;;;;16.49;100.00;99862.75;680730;28;1919;-62
2022/09/14 02:00:32;;;;;;;9.18;6.97;;;;;;;16.50;100.00;99871.53;681433;28;1204;-62
2022/09/14 02:00:55;;;;;;;9.98;6.93;;;;;;;16.49;100.00;99864.53;677070;28;4377;-61